M I D A S
Marine Information and Data Acquisition System
Tripno 1665 of the Zeeleeuw from 2009-03-26 07:33:00 to 2009-03-26 15:56:00
Back to CruiseResearch ActivitiesStationsMapUnderway DataData graphs

EquipmentUnitsComments
TimeDGPSUTC
LatitudeDGPSDM.mWGS84
LongitudeDGPSDM.mWGS84
SpeedMeteo Stationm/sRelative wind speed
DirectionMeteo StationdegRelative wind direction
TemperatureMeteo Stationdeg CelciusAir temperature
PressureMeteo StationPaAtmospheric pressure
HumidityMeteo Station%Relative humidity
Missing or incorrect values are displayed as -999
Metereological data collected by the RV Zeeleeuw from 2009-03-26 07:33:22 to 2009-03-26 15:56:01
Time Latitude Longitude Speed Direction Temperature Pressure Humidity
2009-03-26 07:34 51°13.683 2°55.892 4.4 28 7.1 100480 89
2009-03-26 07:35 51°13.697 2°55.81 2.5 40 7.1 100480 88
2009-03-26 07:36 51°13.7 2°55.764 4.1 38 7.1 100480 89
2009-03-26 07:37 51°13.705 2°55.757 4.5 22 7.1 100490 89
2009-03-26 07:38 51°13.712 2°55.744 2.6 269 7.1 100490 89
2009-03-26 07:39 51°13.788 2°55.67 2.3 339 7.2 100490 88
2009-03-26 07:40 51°13.899 2°55.582 4.8 323 7.2 100490 88
2009-03-26 07:41 51°14.029 2°55.487 3.2 23 7.2 100480 89
2009-03-26 07:42 51°14.17 2°55.377 2.7 22 7.3 100480 88
2009-03-26 07:43 51°14.284 2°55.227 5.1 26 7.3 100470 88
2009-03-26 07:44 51°14.38 2°55.055 8.6 21 7.3 100470 88
2009-03-26 07:45 51°14.482 2°54.868 7.6 18 7.3 100470 87
2009-03-26 07:46 51°14.592 2°54.665 8.6 23 7.3 100460 87
2009-03-26 07:47 51°14.705 2°54.443 9 249 7.3 100470 87
2009-03-26 07:48 51°14.825 2°54.197 9.5 246 7.4 100450 87
2009-03-26 07:49 51°14.942 2°53.935 11.5 251 7.4 100450 88
2009-03-26 07:50 51°15.065 2°53.678 4.4 20 7.4 100450 87
2009-03-26 07:51 51°15.189 2°53.421 9.1 20 7.4 100450 88
2009-03-26 07:52 51°15.314 2°53.165 10 19 7.4 100440 87
2009-03-26 07:53 51°15.443 2°52.911 9.8 251 7.4 100450 87
2009-03-26 07:54 51°15.576 2°52.663 10.1 24 7.4 100440 87
2009-03-26 07:55 51°15.709 2°52.411 11.5 20 7.4 100440 88
2009-03-26 07:56 51°15.84 2°52.158 9.1 21 7.5 100430 88
2009-03-26 07:57 51°15.972 2°51.909 8.7 21 7.5 100440 87
2009-03-26 07:58 51°16.105 2°51.667 10.4 22 7.5 100430 88
2009-03-26 07:59 51°16.24 2°51.433 10.3 248 7.5 100420 87
2009-03-26 08:00 51°16.375 2°51.206 8.9 246 7.6 100410 87
2009-03-26 08:01 51°16.543 2°51.084 5.1 261 7.6 100430 87
2009-03-26 08:02 51°16.693 2°51.086 6.8 24 7.7 100430 87
2009-03-26 08:03 51°16.804 2°51.1 6.3 23 7.7 100420 86
2009-03-26 08:04 51°16.859 2°51.09 9.4 20 7.7 100420 86
2009-03-26 08:05 51°16.879 2°51.067 7 267 7.7 100420 86
2009-03-26 08:06 51°16.881 2°51.044 6.5 262 7.7 100430 84
2009-03-26 08:07 51°16.877 2°51.028 9 262 7.7 100420 83
2009-03-26 08:08 51°16.871 2°51.017 8.2 260 7.8 100430 85
2009-03-26 08:09 51°16.864 2°51.011 6.2 264 7.8 100430 85
2009-03-26 08:10 51°16.856 2°51.007 10.7 262 7.8 100430 85
2009-03-26 08:11 51°16.848 2°51.005 7 263 7.8 100430 85
2009-03-26 08:12 51°16.838 2°51.005 8.8 265 7.8 100430 85
2009-03-26 08:13 51°16.828 2°51.005 7.3 268 7.7 100430 85
2009-03-26 08:14 51°16.817 2°51.006 9.9 268 7.7 100430 85
2009-03-26 08:15 51°16.807 2°51.006 10.2 342 7.7 100420 85
2009-03-26 08:16 51°16.797 2°51.006 10 267 7.7 100420 85
2009-03-26 08:17 51°16.788 2°51.004 9.9 269 7.8 100420 85
2009-03-26 08:18 51°16.784 2°50.996 7.5 266 7.8 100420 85
2009-03-26 08:19 51°16.785 2°50.981 7.9 269 7.8 100420 85
2009-03-26 08:20 51°16.788 2°50.962 6.7 265 7.8 100420 85
2009-03-26 08:21 51°16.795 2°50.939 9.9 251 7.8 100430 86
2009-03-26 08:22 51°16.819 2°50.926 8.6 21 7.7 100420 86
2009-03-26 08:23 51°16.84 2°50.96 9.2 40 7.8 100410 86
2009-03-26 08:24 51°16.847 2°51.051 8.2 33 7.8 100380 85
2009-03-26 08:25 51°16.871 2°51.164 7.4 24 7.8 100410 86
2009-03-26 08:26 51°16.905 2°51.165 11.6 268 7.8 100430 86
2009-03-26 08:27 51°16.912 2°51.146 8 264 7.8 100430 85
2009-03-26 08:28 51°16.907 2°51.135 13.8 259 7.8 100430 86
2009-03-26 08:29 51°16.899 2°51.133 9 259 7.8 100430 86
2009-03-26 08:30 51°16.889 2°51.138 9.9 261 7.8 100420 86
2009-03-26 08:31 51°16.875 2°51.145 8.5 268 7.8 100410 86
2009-03-26 08:32 51°16.86 2°51.151 8.5 27 7.8 100410 87
2009-03-26 08:33 51°16.844 2°51.156 10.2 17 7.8 100410 87
2009-03-26 08:34 51°16.829 2°51.162 8.9 22 7.8 100410 87
2009-03-26 08:35 51°16.814 2°51.168 10.1 21 7.8 100410 88
2009-03-26 08:36 51°16.807 2°51.171 11.5 20 7.8 100410 88
2009-03-26 08:37 51°16.817 2°51.165 9.4 24 7.8 100410 87
2009-03-26 08:38 51°16.844 2°51.201 9.2 37 7.8 100410 88
2009-03-26 08:39 51°16.824 2°51.264 10.1 15 7.8 100390 88
2009-03-26 08:40 51°16.783 2°51.31 11.3 12 7.8 100390 88
2009-03-26 08:41 51°16.734 2°51.348 11.5 7 7.8 100390 88
2009-03-26 08:42 51°16.685 2°51.375 7.4 4 7.8 100380 89
2009-03-26 08:43 51°16.633 2°51.395 11.3 -999 7.9 100380 89
2009-03-26 08:44 51°16.581 2°51.41 10.9 356 7.8 100380 89
2009-03-26 08:45 51°16.528 2°51.416 11.4 351 7.9 100380 89
2009-03-26 08:46 51°16.478 2°51.402 13.6 342 7.9 100390 89
2009-03-26 08:47 51°16.431 2°51.364 12.5 338 8 100390 89
2009-03-26 08:48 51°16.378 2°51.329 12.8 344 8 100380 89
2009-03-26 08:49 51°16.327 2°51.295 13.3 335 8.1 100390 89
2009-03-26 08:50 51°16.286 2°51.238 10.9 321 8.1 100390 89
2009-03-26 08:51 51°16.262 2°51.166 12.3 318 8.1 100400 89
2009-03-26 08:52 51°16.239 2°51.093 13.4 323 8.2 100400 89
2009-03-26 08:53 51°16.207 2°51.026 13.1 332 8.2 100390 89
2009-03-26 08:54 51°16.168 2°50.965 15.1 327 8.2 100390 89
2009-03-26 08:55 51°16.132 2°50.906 12.1 330 8.3 100380 88
2009-03-26 08:56 51°16.102 2°50.84 12.8 327 8.3 100390 88
2009-03-26 08:57 51°16.08 2°50.769 10.6 317 8.3 100380 88
2009-03-26 08:58 51°16.066 2°50.691 15.6 317 8.3 100380 89
2009-03-26 08:59 51°16.055 2°50.618 15.1 25 8.3 100370 89
2009-03-26 09:00 51°16.058 2°50.548 14.6 25 8.3 100380 89
2009-03-26 09:01 51°16.072 2°50.481 15.2 22 8.3 100390 89
2009-03-26 09:02 51°16.082 2°50.44 11.8 244 8.3 100390 89
2009-03-26 09:03 51°16.089 2°50.413 13.8 21 8.3 100390 88
2009-03-26 09:04 51°16.097 2°50.395 13.5 254 8.3 100380 88
2009-03-26 09:05 51°16.112 2°50.376 9.4 259 8.3 100390 88
2009-03-26 09:06 51°16.146 2°50.366 9.8 28 8.2 100400 88
2009-03-26 09:07 51°16.179 2°50.434 7.4 20 8.3 100380 89
2009-03-26 09:08 51°16.265 2°50.652 4.2 21 8.5 100390 90
2009-03-26 09:09 51°16.386 2°50.873 3 18 8.8 100390 88
2009-03-26 09:10 51°16.51 2°51.099 4 24 8.8 100390 85
2009-03-26 09:11 51°16.63 2°51.315 3.3 25 8.7 100390 85
2009-03-26 09:12 51°16.751 2°51.542 4 28 8.7 100380 86
2009-03-26 09:13 51°16.87 2°51.77 7.8 20 8.9 100380 85
2009-03-26 09:14 51°16.989 2°51.996 5.4 22 9 100380 86
2009-03-26 09:15 51°17.108 2°52.22 6.6 22 9.1 100370 83
2009-03-26 09:16 51°17.225 2°52.438 5.3 26 9 100370 82
2009-03-26 09:17 51°17.344 2°52.665 5.7 25 9.1 100360 85
2009-03-26 09:18 51°17.462 2°52.888 5 20 9.2 100360 84
2009-03-26 09:19 51°17.581 2°53.116 4.4 23 9.4 100360 81
2009-03-26 09:20 51°17.697 2°53.333 5.3 21 9.5 100350 82
2009-03-26 09:21 51°17.816 2°53.557 4 26 9.6 100350 81
2009-03-26 09:22 51°17.93 2°53.774 4.9 22 9.7 100340 82
2009-03-26 09:23 51°18.044 2°53.999 3.6 24 9.7 100340 79
2009-03-26 09:24 51°18.158 2°54.219 6.8 26 9.6 100350 79
2009-03-26 09:25 51°18.211 2°54.492 7.6 37 9.2 100330 79
2009-03-26 09:26 51°18.249 2°54.777 6.7 45 8.9 100340 81
2009-03-26 09:27 51°18.29 2°55.058 6.5 39 8.8 100340 83
2009-03-26 09:28 51°18.33 2°55.336 8.3 38 8.6 100340 84
2009-03-26 09:29 51°18.383 2°55.612 7.8 25 8.5 100350 85
2009-03-26 09:30 51°18.446 2°55.879 7.1 18 8.4 100340 86
2009-03-26 09:31 51°18.507 2°56.148 7.5 22 8.4 100340 86
2009-03-26 09:32 51°18.588 2°56.403 4.7 21 8.4 100340 86
2009-03-26 09:33 51°18.678 2°56.653 5.9 24 8.9 100340 87
2009-03-26 09:34 51°18.766 2°56.906 6.9 22 9 100340 84
2009-03-26 09:35 51°18.854 2°57.168 7.1 20 8.9 100340 83
2009-03-26 09:36 51°18.945 2°57.418 4.5 22 8.8 100340 86
2009-03-26 09:37 51°19.043 2°57.656 5 26 9.2 100340 88
2009-03-26 09:38 51°19.164 2°57.86 5.6 27 9.4 100350 83
2009-03-26 09:39 51°19.301 2°58.039 5.8 18 9.1 100340 81
2009-03-26 09:40 51°19.431 2°58.237 7.9 19 8.8 100340 83
2009-03-26 09:41 51°19.557 2°58.443 5.6 21 8.6 100340 84
2009-03-26 09:42 51°19.687 2°58.65 9.5 27 8.5 100340 85
2009-03-26 09:43 51°19.815 2°58.858 6.3 18 8.5 100340 86
2009-03-26 09:44 51°19.942 2°59.066 4.7 19 8.5 100340 87
2009-03-26 09:45 51°20.071 2°59.282 7.4 26 8.4 100330 87
2009-03-26 09:46 51°20.201 2°59.498 7.2 26 8.4 100330 87
2009-03-26 09:47 51°20.332 2°59.711 5.9 22 8.5 100330 87
2009-03-26 09:48 51°20.464 2°59.926 7.5 22 8.4 100330 88
2009-03-26 09:49 51°20.598 3°0.146 7.4 20 8.4 100320 87
2009-03-26 09:50 51°20.73 3°0.366 5.7 20 8.3 100320 88
2009-03-26 09:51 51°20.861 3°0.588 4.4 18 8.3 100320 88
2009-03-26 09:52 51°20.993 3°0.809 7.2 26 8.4 100310 88
2009-03-26 09:53 51°21.128 3°1.026 7 27 8.3 100310 88
2009-03-26 09:54 51°21.263 3°1.244 7.1 19 8.3 100310 89
2009-03-26 09:55 51°21.396 3°1.468 6.8 19 8.2 100300 89
2009-03-26 09:56 51°21.531 3°1.694 7.7 19 8.2 100310 89
2009-03-26 09:57 51°21.663 3°1.917 9.2 25 8.1 100310 90
2009-03-26 09:58 51°21.799 3°2.138 5.4 20 8.1 100310 90
2009-03-26 09:59 51°21.936 3°2.359 6.7 22 8.2 100300 90
2009-03-26 10:00 51°22.075 3°2.582 5.7 20 8.2 100290 90
2009-03-26 10:01 51°22.209 3°2.813 7.5 25 8.1 100300 90
2009-03-26 10:02 51°22.346 3°3.04 4.9 26 8.2 100290 91
2009-03-26 10:03 51°22.481 3°3.272 6.9 24 8.2 100290 90
2009-03-26 10:04 51°22.613 3°3.505 3.8 26 8.2 100290 90
2009-03-26 10:05 51°22.747 3°3.743 5.7 19 8.2 100300 90
2009-03-26 10:06 51°22.881 3°3.983 6.1 18 8.3 100290 90
2009-03-26 10:07 51°23.016 3°4.219 5.2 27 8.3 100290 90
2009-03-26 10:08 51°23.151 3°4.456 7.3 26 8.2 100290 90
2009-03-26 10:09 51°23.284 3°4.701 5 25 8.2 100290 90
2009-03-26 10:10 51°23.417 3°4.946 5.9 21 8.2 100290 90
2009-03-26 10:11 51°23.55 3°5.188 6.6 28 8.2 100280 91
2009-03-26 10:12 51°23.682 3°5.436 4.1 21 8.2 100280 91
2009-03-26 10:13 51°23.817 3°5.682 6.5 24 8.3 100280 91
2009-03-26 10:14 51°23.954 3°5.927 5 27 8.5 100270 92
2009-03-26 10:15 51°24.093 3°6.175 3.6 20 8.5 100260 89
2009-03-26 10:16 51°24.225 3°6.429 5.3 21 8.7 100260 90
2009-03-26 10:17 51°24.354 3°6.675 3.4 25 8.7 100260 89
2009-03-26 10:18 51°24.487 3°6.914 5.4 20 8.7 100260 89
2009-03-26 10:19 51°24.632 3°7.12 6.6 20 8.5 100260 87
2009-03-26 10:20 51°24.783 3°7.315 7.9 24 8.4 100250 88
2009-03-26 10:21 51°24.945 3°7.475 8.9 26 8.3 100250 89
2009-03-26 10:22 51°25.113 3°7.598 6.4 270 8.2 100250 89
2009-03-26 10:23 51°25.284 3°7.71 6.4 266 8.1 100240 90
2009-03-26 10:24 51°25.458 3°7.819 5.6 264 8.1 100240 90
2009-03-26 10:25 51°25.631 3°7.932 8.9 265 8.1 100230 90
2009-03-26 10:26 51°25.804 3°8.041 6.4 267 8.1 100230 91
2009-03-26 10:27 51°25.977 3°8.156 6 268 8 100220 91
2009-03-26 10:28 51°26.149 3°8.262 9.5 26 8 100220 91
2009-03-26 10:29 51°26.308 3°8.264 13.1 258 8 100220 91
2009-03-26 10:30 51°26.414 3°8.212 12.8 259 8 100200 91
2009-03-26 10:31 51°26.445 3°8.203 10.7 250 8 100230 91
2009-03-26 10:32 51°26.448 3°8.227 15.9 258 8 100220 91
2009-03-26 10:33 51°26.446 3°8.264 9.4 260 8 100230 91
2009-03-26 10:34 51°26.441 3°8.304 9.5 265 8 100220 92
2009-03-26 10:35 51°26.434 3°8.347 12.5 266 8 100210 92
2009-03-26 10:36 51°26.429 3°8.391 12.1 266 8 100220 92
2009-03-26 10:37 51°26.425 3°8.432 8.7 265 8 100210 92
2009-03-26 10:38 51°26.429 3°8.466 10.7 261 8 100200 92
2009-03-26 10:39 51°26.45 3°8.476 13.9 258 8 100200 92
2009-03-26 10:40 51°26.469 3°8.483 13.9 253 8 100210 92
2009-03-26 10:41 51°26.483 3°8.496 17.1 253 8 100200 92
2009-03-26 10:42 51°26.497 3°8.505 14.1 255 8 100200 93
2009-03-26 10:43 51°26.502 3°8.538 14.7 252 8.1 100210 93
2009-03-26 10:44 51°26.502 3°8.58 12.8 260 8.1 100200 93
2009-03-26 10:45 51°26.501 3°8.627 11.8 262 8 100190 92
2009-03-26 10:46 51°26.497 3°8.68 8.5 268 8.1 100200 93
2009-03-26 10:47 51°26.492 3°8.731 12.6 268 8.1 100190 92
2009-03-26 10:48 51°26.488 3°8.781 8.7 266 8 100200 92
2009-03-26 10:49 51°26.486 3°8.832 12 263 8.1 100190 93
2009-03-26 10:50 51°26.486 3°8.884 11.6 266 8.1 100190 93
2009-03-26 10:51 51°26.486 3°8.935 13.3 261 8.1 100180 93
2009-03-26 10:52 51°26.484 3°8.988 14.1 265 8.1 100180 92
2009-03-26 10:53 51°26.483 3°9.042 10 261 8.1 100180 92
2009-03-26 10:54 51°26.485 3°9.095 10.5 266 8.1 100170 92
2009-03-26 10:55 51°26.522 3°9.141 10.2 24 8.1 100170 92
2009-03-26 10:56 51°26.543 3°9.257 13.6 34 8.1 100150 92
2009-03-26 10:57 51°26.528 3°9.357 12.8 26 8.1 100110 92
2009-03-26 10:58 51°26.505 3°9.448 14.5 16 8.1 100130 92
2009-03-26 10:59 51°26.469 3°9.542 14.9 9 8.1 100130 92
2009-03-26 11:00 51°26.431 3°9.632 14.5 8 8.1 100130 93
2009-03-26 11:01 51°26.395 3°9.721 17 13 8.1 100130 93
2009-03-26 11:02 51°26.366 3°9.813 15 13 8.1 100120 92
2009-03-26 11:03 51°26.338 3°9.903 15.6 11 8.1 100110 92
2009-03-26 11:04 51°26.308 3°9.995 14.2 19 8.1 100110 93
2009-03-26 11:05 51°26.279 3°10.084 16.5 13 8.1 100110 92
2009-03-26 11:06 51°26.248 3°10.171 15.1 10 8.1 100090 92
2009-03-26 11:07 51°26.216 3°10.254 12.9 7 8.1 100100 92
2009-03-26 11:08 51°26.182 3°10.334 11.6 6 8.1 100110 92
2009-03-26 11:09 51°26.152 3°10.417 16.2 10 8.1 100120 92
2009-03-26 11:10 51°26.12 3°10.497 13 6 8.1 100110 92
2009-03-26 11:11 51°26.088 3°10.579 13.2 1 8.1 100100 93
2009-03-26 11:12 51°26.056 3°10.655 9.7 3 8.1 100100 93
2009-03-26 11:13 51°26.025 3°10.735 14 12 8.1 100120 93
2009-03-26 11:14 51°25.995 3°10.818 14.6 8 8.1 100120 93
2009-03-26 11:15 51°25.969 3°10.901 12.6 13 8.1 100110 93
2009-03-26 11:16 51°25.947 3°10.98 13.4 7 8.1 100110 93
2009-03-26 11:17 51°25.92 3°11.051 11.9 357 8.1 100110 93
2009-03-26 11:18 51°25.88 3°11.113 14.8 353 8.1 100100 93
2009-03-26 11:19 51°25.784 3°11.173 17.6 349 8.1 100090 93
2009-03-26 11:20 51°25.602 3°11.239 17.3 352 8.1 100080 93
2009-03-26 11:21 51°25.428 3°11.385 16 358 8.1 100070 93
2009-03-26 11:22 51°25.254 3°11.568 18.3 -999 8.1 100080 94
2009-03-26 11:23 51°25.095 3°11.799 12.9 -999 8.1 100070 94
2009-03-26 11:24 51°24.957 3°12.076 11.6 4 8.1 100090 93
2009-03-26 11:25 51°24.815 3°12.356 13.3 6 8.1 100080 94
2009-03-26 11:26 51°24.679 3°12.638 11.8 2 8.1 100080 93
2009-03-26 11:27 51°24.542 3°12.932 12.5 6 8.1 100070 94
2009-03-26 11:28 51°24.405 3°13.232 13.5 359 8.1 100080 94
2009-03-26 11:29 51°24.268 3°13.538 12.5 6 8.1 100080 94
2009-03-26 11:30 51°24.138 3°13.863 16 11 8.1 100070 94
2009-03-26 11:31 51°24.009 3°14.171 14.4 7 8.1 100070 93
2009-03-26 11:32 51°23.882 3°14.481 12.8 6 8.2 100080 93
2009-03-26 11:33 51°23.754 3°14.803 15.1 10 8.2 100090 93
2009-03-26 11:34 51°23.626 3°15.122 14.9 9 8.3 100070 92
2009-03-26 11:35 51°23.509 3°15.461 11.3 12 8.4 100090 92
2009-03-26 11:36 51°23.406 3°15.806 12.9 15 8.4 100090 91
2009-03-26 11:37 51°23.325 3°16.177 11.9 9 8.6 100100 91
2009-03-26 11:38 51°23.248 3°16.548 9.8 15 8.6 100090 90
2009-03-26 11:39 51°23.161 3°16.915 11.4 10 8.7 100100 90
2009-03-26 11:40 51°23.073 3°17.281 13.4 11 8.7 100090 90
2009-03-26 11:41 51°22.988 3°17.637 13 10 8.7 100080 90
2009-03-26 11:42 51°22.908 3°17.978 11.5 10 8.7 100090 91
2009-03-26 11:43 51°22.819 3°18.269 12.3 7 8.7 100090 91
2009-03-26 11:44 51°22.739 3°18.443 10.2 5 8.6 100090 91
2009-03-26 11:45 51°22.685 3°18.569 10.4 360 8.6 100080 91
2009-03-26 11:46 51°22.639 3°18.67 8.2 6 8.6 100080 91
2009-03-26 11:47 51°22.624 3°18.786 15.6 25 8.6 100090 91
2009-03-26 11:48 51°22.631 3°18.915 12.3 25 8.6 100090 91
2009-03-26 11:49 51°22.663 3°19.046 8.5 24 8.7 100100 91
2009-03-26 11:50 51°22.711 3°19.143 9.7 24 8.7 100100 91
2009-03-26 11:51 51°22.74 3°19.221 8.4 266 8.8 100100 91
2009-03-26 11:52 51°22.762 3°19.293 6.7 264 8.7 100110 90
2009-03-26 11:53 51°22.781 3°19.367 9.3 261 8.7 100100 90
2009-03-26 11:54 51°22.798 3°19.45 12.7 260 8.7 100100 90
2009-03-26 11:55 51°22.809 3°19.536 8 265 8.7 100100 90
2009-03-26 11:56 51°22.819 3°19.619 9.2 20 8.7 100100 91
2009-03-26 11:57 51°22.829 3°19.7 10.7 22 8.7 100090 91
2009-03-26 11:58 51°22.842 3°19.781 11.5 20 8.7 100100 91
2009-03-26 11:59 51°22.858 3°19.862 11.4 26 8.7 100090 90
2009-03-26 12:00 51°22.874 3°19.941 9.3 24 8.7 100100 91
2009-03-26 12:01 51°22.887 3°20.022 10.2 269 8.7 100090 91
2009-03-26 12:02 51°22.901 3°20.107 8.2 265 8.7 100090 91
2009-03-26 12:03 51°22.914 3°20.19 11.7 30 8.7 100090 91
2009-03-26 12:04 51°22.928 3°20.272 12.2 28 8.7 100090 91
2009-03-26 12:05 51°22.962 3°20.327 12.2 24 8.7 100070 91
2009-03-26 12:06 51°22.964 3°20.291 13.9 329 8.7 100070 91
2009-03-26 12:07 51°22.934 3°20.161 14.1 324 8.7 100070 91
2009-03-26 12:08 51°22.892 3°19.995 14.5 327 8.7 100060 91
2009-03-26 12:09 51°22.843 3°19.809 17.4 324 8.7 100060 91
2009-03-26 12:10 51°22.787 3°19.631 17.8 327 8.7 100070 91
2009-03-26 12:11 51°22.733 3°19.442 16.2 316 8.8 100060 92
2009-03-26 12:12 51°22.704 3°19.249 14.8 322 8.8 100040 92
2009-03-26 12:13 51°22.691 3°19.052 16.7 317 8.8 100050 92
2009-03-26 12:14 51°22.677 3°18.912 13 20 8.7 100070 91
2009-03-26 12:15 51°22.696 3°18.868 12 22 8.7 100070 92
2009-03-26 12:16 51°22.714 3°18.872 12.9 24 8.7 100060 92
2009-03-26 12:17 51°22.732 3°18.891 14.7 23 8.7 100070 92
2009-03-26 12:18 51°22.752 3°18.919 9.8 23 8.7 100070 92
2009-03-26 12:19 51°22.77 3°18.938 14.8 22 8.7 100050 92
2009-03-26 12:20 51°22.782 3°18.955 9.4 316 8.7 100060 92
2009-03-26 12:21 51°22.795 3°18.969 13.5 24 8.7 100060 92
2009-03-26 12:22 51°22.815 3°18.978 11.6 24 8.7 100060 92
2009-03-26 12:23 51°22.839 3°18.978 13.1 21 8.7 100060 92
2009-03-26 12:24 51°22.867 3°18.961 13.1 23 8.7 100060 93
2009-03-26 12:25 51°22.901 3°18.798 15.7 22 8.7 100040 92
2009-03-26 12:26 51°22.906 3°18.557 16.2 317 8.8 100040 93
2009-03-26 12:27 51°22.909 3°18.306 18.8 318 8.8 100050 92
2009-03-26 12:28 51°22.915 3°18.058 14.6 318 8.8 100050 92
2009-03-26 12:29 51°22.92 3°17.808 17.3 317 8.8 100050 92
2009-03-26 12:30 51°22.927 3°17.566 18.3 25 8.7 100040 92
2009-03-26 12:31 51°22.932 3°17.325 14.3 317 8.8 100040 93
2009-03-26 12:32 51°22.937 3°17.075 18.2 319 8.8 100040 92
2009-03-26 12:33 51°22.941 3°16.841 18.4 316 8.9 100050 92
2009-03-26 12:34 51°22.945 3°16.6 21.9 318 8.9 100030 92
2009-03-26 12:35 51°22.95 3°16.36 18.7 318 9 100030 91
2009-03-26 12:36 51°22.944 3°16.123 21.3 315 9 100020 91
2009-03-26 12:37 51°22.937 3°15.889 18.9 319 9 100030 90
2009-03-26 12:38 51°22.93 3°15.655 20.7 324 9 100020 90
2009-03-26 12:39 51°22.923 3°15.423 17.4 317 9 100030 90
2009-03-26 12:40 51°22.904 3°15.197 18.4 324 9 100040 90
2009-03-26 12:41 51°22.879 3°14.973 20.4 319 8.9 100030 90
2009-03-26 12:42 51°22.854 3°14.749 17.9 322 8.9 100030 91
2009-03-26 12:43 51°22.83 3°14.521 20.2 320 8.9 100030 91
2009-03-26 12:44 51°22.806 3°14.292 18 322 8.8 100030 92
2009-03-26 12:45 51°22.784 3°14.07 17.9 320 8.8 100020 92
2009-03-26 12:46 51°22.761 3°13.845 21.7 317 8.8 100030 92
2009-03-26 12:47 51°22.74 3°13.632 19.7 320 8.7 100020 92
2009-03-26 12:48 51°22.718 3°13.395 21 320 8.7 100020 93
2009-03-26 12:49 51°22.697 3°13.16 20.8 319 8.6 100020 93
2009-03-26 12:50 51°22.675 3°12.924 22.6 318 8.6 100020 93
2009-03-26 12:51 51°22.653 3°12.69 19.2 321 8.5 100010 93
2009-03-26 12:52 51°22.633 3°12.452 18.8 321 8.5 100000 94
2009-03-26 12:53 51°22.608 3°12.221 15.4 321 8.5 100000 94
2009-03-26 12:54 51°22.573 3°12.007 18.2 326 8.4 100000 94
2009-03-26 12:55 51°22.541 3°11.807 15.4 323 8.4 100020 94
2009-03-26 12:56 51°22.537 3°11.739 15.1 320 8.4 100020 95
2009-03-26 12:57 51°22.547 3°11.74 10.2 317 8.4 100020 95
2009-03-26 12:58 51°22.56 3°11.755 12 318 8.4 100020 95
2009-03-26 12:59 51°22.573 3°11.774 13.5 320 8.4 100020 95
2009-03-26 13:00 51°22.587 3°11.795 12.2 319 8.4 100020 95
2009-03-26 13:01 51°22.6 3°11.816 11.6 322 8.4 100010 95
2009-03-26 13:02 51°22.61 3°11.836 12.1 321 8.4 100020 95
2009-03-26 13:03 51°22.619 3°11.852 13 322 8.4 100020 95
2009-03-26 13:04 51°22.628 3°11.863 12.3 323 8.3 100020 96
2009-03-26 13:05 51°22.637 3°11.877 13.7 322 8.3 100020 96
2009-03-26 13:06 51°22.649 3°11.89 13.5 316 8.3 100020 96
2009-03-26 13:07 51°22.658 3°11.906 17.9 322 8.3 100020 96
2009-03-26 13:08 51°22.669 3°11.922 15.4 321 8.4 100020 96
2009-03-26 13:09 51°22.68 3°11.938 16.6 321 8.4 100020 96
2009-03-26 13:10 51°22.689 3°11.943 15.6 21 8.4 100020 96
2009-03-26 13:11 51°22.753 3°11.902 14.3 21 8.3 100020 96
2009-03-26 13:12 51°22.88 3°11.805 14.9 21 8.3 100000 96
2009-03-26 13:13 51°23.025 3°11.671 19 23 8.3 99970 96
2009-03-26 13:14 51°23.177 3°11.533 15.9 21 8.3 99970 96
2009-03-26 13:15 51°23.336 3°11.379 16.1 22 8.3 99960 96
2009-03-26 13:16 51°23.492 3°11.229 16.8 22 8.2 99960 97
2009-03-26 13:17 51°23.653 3°11.079 16.2 23 8.2 99970 97
2009-03-26 13:18 51°23.808 3°10.93 18.4 23 8.2 99970 97
2009-03-26 13:19 51°23.962 3°10.782 19.3 22 8.2 99960 97
2009-03-26 13:20 51°24.123 3°10.625 16.2 25 8.2 99950 97
2009-03-26 13:21 51°24.286 3°10.469 14.8 22 8.2 99950 97
2009-03-26 13:22 51°24.45 3°10.313 17.4 24 8.2 99960 97
2009-03-26 13:23 51°24.594 3°10.13 16.6 23 8.2 99940 97
2009-03-26 13:24 51°24.689 3°9.901 23 22 8.2 99920 97
2009-03-26 13:25 51°24.779 3°9.68 19.4 23 8.2 99900 97
2009-03-26 13:26 51°24.87 3°9.454 19 22 8.3 99930 97
2009-03-26 13:27 51°24.965 3°9.226 22.7 24 8.3 99880 97
2009-03-26 13:28 51°25.063 3°8.999 22.3 24 8.4 99910 97
2009-03-26 13:29 51°25.158 3°8.78 22.6 23 8.4 99920 97
2009-03-26 13:30 51°25.239 3°8.554 16.5 24 8.4 99920 97
2009-03-26 13:31 51°25.344 3°8.344 19 23 8.4 99930 96
2009-03-26 13:32 51°25.484 3°8.158 21.7 25 8.4 99920 96
2009-03-26 13:33 51°25.627 3°7.968 18.9 25 8.4 99920 96
2009-03-26 13:34 51°25.769 3°7.781 18.2 20 8.4 99910 96
2009-03-26 13:35 51°25.917 3°7.587 20 23 8.4 99940 96
2009-03-26 13:36 51°26.056 3°7.412 20.9 25 8.4 99920 96
2009-03-26 13:37 51°26.19 3°7.24 17.5 20 8.4 99880 95
2009-03-26 13:38 51°26.322 3°7.057 20.5 23 8.4 99910 95
2009-03-26 13:39 51°26.456 3°6.866 18 24 8.4 99900 95
2009-03-26 13:40 51°26.591 3°6.67 15.9 24 8.4 99880 95
2009-03-26 13:41 51°26.736 3°6.472 22.3 24 8.4 99890 95
2009-03-26 13:42 51°26.873 3°6.278 22.3 21 8.4 99870 95
2009-03-26 13:43 51°27.01 3°6.081 21.9 23 8.4 99900 95
2009-03-26 13:44 51°27.15 3°5.882 21.6 23 8.4 99890 94
2009-03-26 13:45 51°27.287 3°5.684 22.1 23 8.4 99890 93
2009-03-26 13:46 51°27.424 3°5.493 18.9 24 8.4 99900 93
2009-03-26 13:47 51°27.549 3°5.304 19.9 21 8.3 99920 93
2009-03-26 13:48 51°27.66 3°5.088 20.6 20 8.3 99870 93
2009-03-26 13:49 51°27.772 3°4.855 18.9 22 8.3 99850 93
2009-03-26 13:50 51°27.886 3°4.645 21.7 24 8.3 99880 93
2009-03-26 13:51 51°28.003 3°4.418 19.1 20 8.3 99850 93
2009-03-26 13:52 51°28.105 3°4.189 21.6 23 8.3 99870 93
2009-03-26 13:53 51°28.179 3°3.958 21.9 27 8.3 99850 93
2009-03-26 13:54 51°28.257 3°3.734 17.6 23 8.3 99860 93
2009-03-26 13:55 51°28.313 3°3.642 16.3 20 8.3 99860 93
2009-03-26 13:56 51°28.352 3°3.595 21.3 323 8.3 99880 93
2009-03-26 13:57 51°28.324 3°3.526 16.1 342 8.3 99880 93
2009-03-26 13:58 51°28.249 3°3.452 20.9 338 8.3 99870 93
2009-03-26 13:59 51°28.201 3°3.373 17.6 336 8.3 99870 93
2009-03-26 14:00 51°28.12 3°3.223 17.6 334 8.3 99870 93
2009-03-26 14:01 51°28.024 3°3.053 23.1 335 8.3 99870 93
2009-03-26 14:02 51°27.934 3°2.894 20.5 337 8.3 99850 93
2009-03-26 14:03 51°27.848 3°2.745 22.9 333 8.2 99880 94
2009-03-26 14:04 51°27.758 3°2.58 20.1 334 8.2 99870 94
2009-03-26 14:05 51°27.654 3°2.433 21.1 338 8.2 99860 94
2009-03-26 14:06 51°27.529 3°2.322 21.5 342 8.2 99840 94
2009-03-26 14:07 51°27.392 3°2.237 18.8 341 8.1 99850 94
2009-03-26 14:08 51°27.255 3°2.156 17.5 346 8.1 99850 94
2009-03-26 14:09 51°27.117 3°2.069 16 345 8.2 99830 94
2009-03-26 14:10 51°26.989 3°1.985 19.9 342 8.2 99820 94
2009-03-26 14:11 51°26.853 3°1.926 19 347 8.2 99830 94
2009-03-26 14:12 51°26.715 3°1.867 21.4 345 8.2 99830 94
2009-03-26 14:13 51°26.574 3°1.808 22.8 346 8.2 99820 94
2009-03-26 14:14 51°26.44 3°1.734 20.5 345 8.2 99820 94
2009-03-26 14:15 51°26.314 3°1.641 18.6 342 8.3 99830 94
2009-03-26 14:16 51°26.186 3°1.546 24.3 344 8.3 99820 96
2009-03-26 14:17 51°26.056 3°1.452 20.7 341 8.3 99840 96
2009-03-26 14:18 51°25.935 3°1.369 21.2 343 8.3 99830 96
2009-03-26 14:19 51°25.81 3°1.278 20.5 342 8.3 99800 96
2009-03-26 14:20 51°25.682 3°1.183 22 344 8.2 99800 96
2009-03-26 14:21 51°25.558 3°1.089 22.9 344 8.1 99830 97
2009-03-26 14:22 51°25.429 3°0.995 20.6 345 8.1 99810 97
2009-03-26 14:23 51°25.312 3°0.91 22.6 346 8.1 99820 97
2009-03-26 14:24 51°25.178 3°0.815 18.8 345 8 99820 97
2009-03-26 14:25 51°25.036 3°0.722 20 345 8 99800 98
2009-03-26 14:26 51°24.886 3°0.636 22.2 344 8.1 99800 98
2009-03-26 14:27 51°24.747 3°0.548 20.1 343 8.1 99800 98
2009-03-26 14:28 51°24.601 3°0.467 21.7 348 8.1 99800 98
2009-03-26 14:29 51°24.463 3°0.383 18.3 341 8.1 99810 98
2009-03-26 14:30 51°24.319 3°0.299 24.2 343 8.1 99810 98
2009-03-26 14:31 51°24.181 3°0.215 21.2 344 8.2 99800 98
2009-03-26 14:32 51°24.044 3°0.133 21.6 347 8.2 99820 98
2009-03-26 14:33 51°23.902 3°0.046 20.2 345 8.2 99810 98
2009-03-26 14:34 51°23.758 2°59.958 23.6 344 8.2 99820 98
2009-03-26 14:35 51°23.607 2°59.871 21.9 344 8.2 99820 96
2009-03-26 14:36 51°23.464 2°59.787 19.6 346 8.1 99830 95
2009-03-26 14:37 51°23.322 2°59.707 21.1 343 8.1 99810 96
2009-03-26 14:38 51°23.179 2°59.601 21.1 342 8.1 99820 96
2009-03-26 14:39 51°23.04 2°59.495 21.1 343 8.1 99830 96
2009-03-26 14:40 51°22.909 2°59.395 20.9 343 8.1 99820 96
2009-03-26 14:41 51°22.775 2°59.289 19.3 347 8.2 99830 96
2009-03-26 14:42 51°22.638 2°59.185 19.6 344 8.2 99820 96
2009-03-26 14:43 51°22.499 2°59.072 19.7 341 8.3 99800 96
2009-03-26 14:44 51°22.367 2°58.95 20 338 8.3 99800 95
2009-03-26 14:45 51°22.246 2°58.824 19.8 336 8.3 99830 95
2009-03-26 14:46 51°22.132 2°58.67 24.2 333 8.3 99830 95
2009-03-26 14:47 51°22.026 2°58.495 20.9 335 8.4 99830 95
2009-03-26 14:48 51°21.933 2°58.312 22.3 333 8.4 99840 95
2009-03-26 14:49 51°21.84 2°58.117 21.4 330 8.3 99830 95
2009-03-26 14:50 51°21.744 2°57.922 24.8 335 8.3 99830 95
2009-03-26 14:51 51°21.646 2°57.736 23.1 337 8.3 99850 95
2009-03-26 14:52 51°21.555 2°57.551 25 331 8.2 99820 95
2009-03-26 14:53 51°21.447 2°57.372 24 343 8.2 99830 95
2009-03-26 14:54 51°21.316 2°57.268 23 343 8.2 99830 96
2009-03-26 14:55 51°21.183 2°57.168 22.1 346 8.1 99830 96
2009-03-26 14:56 51°21.033 2°57.049 21.5 340 8.2 99810 96
2009-03-26 14:57 51°20.898 2°56.933 19.9 345 8.2 99790 96
2009-03-26 14:58 51°20.76 2°56.805 22.3 341 8.2 99820 96
2009-03-26 14:59 51°20.621 2°56.681 23.4 341 8.2 99830 96
2009-03-26 15:00 51°20.481 2°56.559 19.6 343 8.3 99800 95
2009-03-26 15:01 51°20.338 2°56.434 22.9 342 8.3 99820 95
2009-03-26 15:02 51°20.213 2°56.276 21.4 340 8.4 99820 95
2009-03-26 15:03 51°20.092 2°56.115 23.2 338 8.4 99820 95
2009-03-26 15:04 51°19.97 2°55.954 23.5 338 8.4 99820 95
2009-03-26 15:05 51°19.844 2°55.793 19.7 336 8.4 99800 95
2009-03-26 15:06 51°19.722 2°55.638 21.8 337 8.3 99830 95
2009-03-26 15:07 51°19.613 2°55.464 21.6 334 8.2 99820 95
2009-03-26 15:08 51°19.526 2°55.246 22.3 330 8.2 99820 96
2009-03-26 15:09 51°19.452 2°55.016 22.4 329 8.2 99810 96
2009-03-26 15:10 51°19.379 2°54.802 20.5 330 8.2 99820 96
2009-03-26 15:11 51°19.305 2°54.589 22 334 8.2 99810 96
2009-03-26 15:12 51°19.234 2°54.395 18.9 332 8.2 99830 96
2009-03-26 15:13 51°19.161 2°54.191 22.8 329 8.2 99820 97
2009-03-26 15:14 51°19.092 2°54.001 20.6 334 8.2 99800 97
2009-03-26 15:15 51°19.016 2°53.794 21.6 332 8.2 99810 97
2009-03-26 15:16 51°18.925 2°53.591 24.2 334 8.2 99810 97
2009-03-26 15:17 51°18.828 2°53.41 20.5 336 8.2 99800 97
2009-03-26 15:18 51°18.722 2°53.241 25.8 334 8.2 99800 97
2009-03-26 15:19 51°18.612 2°53.079 22.2 337 8.2 99810 97
2009-03-26 15:20 51°18.489 2°52.935 22.5 340 8.2 99800 97
2009-03-26 15:21 51°18.368 2°52.78 21.9 339 8.2 99790 97
2009-03-26 15:22 51°18.239 2°52.645 18.6 344 8.2 99820 97
2009-03-26 15:23 51°18.105 2°52.535 20.1 342 8.2 99780 97
2009-03-26 15:24 51°17.963 2°52.433 25.9 343 8.2 99780 97
2009-03-26 15:25 51°17.819 2°52.33 20.5 346 8.3 99780 97
2009-03-26 15:26 51°17.668 2°52.28 21.7 359 8.3 99770 97
2009-03-26 15:27 51°17.494 2°52.308 24.7 359 8.3 99760 97
2009-03-26 15:28 51°17.322 2°52.349 20.5 355 8.4 99760 97
2009-03-26 15:29 51°17.15 2°52.39 22.1 358 8.4 99760 97
2009-03-26 15:30 51°16.981 2°52.468 17.2 5 8.5 99770 97
2009-03-26 15:31 51°16.814 2°52.564 17.8 1 8.5 99780 96
2009-03-26 15:32 51°16.65 2°52.691 22.3 1 8.6 99740 96
2009-03-26 15:33 51°16.486 2°52.824 15.3 7 8.6 99770 96
2009-03-26 15:34 51°16.322 2°52.955 22.7 7 8.7 99790 96
2009-03-26 15:35 51°16.153 2°53.056 18.7 4 8.8 99750 95
2009-03-26 15:36 51°15.983 2°53.161 15.5 8 8.8 99760 94
2009-03-26 15:37 51°15.811 2°53.263 16.6 5 8.8 99780 94
2009-03-26 15:38 51°15.639 2°53.363 16.4 3 8.9 99760 93
2009-03-26 15:39 51°15.464 2°53.469 13.6 2 8.9 99750 93
2009-03-26 15:40 51°15.291 2°53.568 17.7 3 8.9 99770 93
2009-03-26 15:41 51°15.125 2°53.697 14.9 3 9 99790 92
2009-03-26 15:42 51°14.969 2°53.856 19.2 11 9 99790 91
2009-03-26 15:43 51°14.832 2°54.059 17.7 23 9 99790 92
2009-03-26 15:44 51°14.718 2°54.31 15.5 14 9.1 99810 91
2009-03-26 15:45 51°14.601 2°54.554 14 20 9.1 99820 91
2009-03-26 15:46 51°14.492 2°54.807 17.5 12 9.1 99840 91
2009-03-26 15:47 51°14.384 2°55.034 17.1 19 9.1 99830 90
2009-03-26 15:48 51°14.283 2°55.23 15.3 15 9.1 99860 90
2009-03-26 15:49 51°14.172 2°55.368 7.8 358 9.2 99850 91
2009-03-26 15:50 51°14.046 2°55.47 14.8 356 9.3 99880 91
2009-03-26 15:51 51°13.917 2°55.567 4.7 17 9.4 99860 90
2009-03-26 15:52 51°13.804 2°55.656 6.1 19 9.5 99880 90
2009-03-26 15:53 51°13.722 2°55.774 7.5 27 9.6 99870 90
2009-03-26 15:54 51°13.675 2°55.88 6.4 17 9.6 99890 89
2009-03-26 15:55 51°13.664 2°55.954 6 39 9.6 99890 89